sensor_id;sensor_type;location;lat;lon;timestamp;P1;durP1;ratioP1;P2;durP2;ratioP2
5149;SDS011;2593;52.466;13.436;2023-07-29T00:01:48;9.07;;;8.20;;
5149;SDS011;2593;52.466;13.436;2023-07-29T00:04:14;9.57;;;8.53;;
5149;SDS011;2593;52.466;13.436;2023-07-29T00:06:41;12.60;;;9.30;;
5149;SDS011;2593;52.466;13.436;2023-07-29T00:09:07;16.43;;;7.93;;
5149;SDS011;2593;52.466;13.436;2023-07-29T00:11:33;12.33;;;8.57;;
5149;SDS011;2593;52.466;13.436;2023-07-29T00:14:00;9.53;;;8.10;;
5149;SDS011;2593;52.466;13.436;2023-07-29T00:16:26;13.37;;;9.00;;
5149;SDS011;2593;52.466;13.436;2023-07-29T00:18:52;9.07;;;7.77;;
5149;SDS011;2593;52.466;13.436;2023-07-29T00:21:18;11.40;;;9.57;;
5149;SDS011;2593;52.466;13.436;2023-07-29T00:23:44;14.20;;;9.63;;
5149;SDS011;2593;52.466;13.436;2023-07-29T00:26:11;9.87;;;8.77;;
5149;SDS011;2593;52.466;13.436;2023-07-29T00:28:37;16.30;;;9.23;;
5149;SDS011;2593;52.466;13.436;2023-07-29T00:31:03;11.30;;;10.17;;
5149;SDS011;2593;52.466;13.436;2023-07-29T00:33:29;12.20;;;9.53;;
5149;SDS011;2593;52.466;13.436;2023-07-29T00:35:55;11.03;;;9.67;;
5149;SDS011;2593;52.466;13.436;2023-07-29T00:38:21;10.77;;;9.70;;
5149;SDS011;2593;52.466;13.436;2023-07-29T00:40:47;14.40;;;9.83;;
5149;SDS011;2593;52.466;13.436;2023-07-29T00:43:13;14.53;;;9.50;;
5149;SDS011;2593;52.466;13.436;2023-07-29T00:45:39;10.23;;;8.20;;
5149;SDS011;2593;52.466;13.436;2023-07-29T00:48:07;12.10;;;9.30;;
5149;SDS011;2593;52.466;13.436;2023-07-29T00:50:33;10.43;;;9.20;;
5149;SDS011;2593;52.466;13.436;2023-07-29T00:52:59;8.30;;;7.30;;
5149;SDS011;2593;52.466;13.436;2023-07-29T00:55:26;12.00;;;8.80;;
5149;SDS011;2593;52.466;13.436;2023-07-29T00:57:53;9.90;;;8.93;;
5149;SDS011;2593;52.466;13.436;2023-07-29T01:00:20;9.53;;;8.63;;
5149;SDS011;2593;52.466;13.436;2023-07-29T01:02:46;10.37;;;9.13;;
5149;SDS011;2593;52.466;13.436;2023-07-29T01:05:13;13.23;;;8.67;;
5149;SDS011;2593;52.466;13.436;2023-07-29T01:10:19;9.30;;;8.27;;
5149;SDS011;2593;52.466;13.436;2023-07-29T01:18:18;9.73;;;8.73;;
5149;SDS011;2593;52.466;13.436;2023-07-29T01:20:45;16.93;;;10.43;;
5149;SDS011;2593;52.466;13.436;2023-07-29T01:23:12;12.47;;;8.93;;
5149;SDS011;2593;52.466;13.436;2023-07-29T01:25:38;11.33;;;9.30;;
5149;SDS011;2593;52.466;13.436;2023-07-29T01:28:04;12.13;;;9.63;;
5149;SDS011;2593;52.466;13.436;2023-07-29T01:30:31;13.43;;;9.53;;
5149;SDS011;2593;52.466;13.436;2023-07-29T01:33:07;13.60;;;9.30;;
5149;SDS011;2593;52.466;13.436;2023-07-29T01:38:14;10.53;;;9.40;;
5149;SDS011;2593;52.466;13.436;2023-07-29T01:40:43;11.20;;;8.60;;
5149;SDS011;2593;52.466;13.436;2023-07-29T01:43:10;15.90;;;9.67;;
5149;SDS011;2593;52.466;13.436;2023-07-29T01:45:36;12.67;;;9.50;;
5149;SDS011;2593;52.466;13.436;2023-07-29T01:48:06;11.43;;;9.73;;
5149;SDS011;2593;52.466;13.436;2023-07-29T01:50:32;11.37;;;10.17;;
5149;SDS011;2593;52.466;13.436;2023-07-29T01:52:59;13.67;;;9.57;;
5149;SDS011;2593;52.466;13.436;2023-07-29T01:55:25;11.10;;;9.53;;
5149;SDS011;2593;52.466;13.436;2023-07-29T01:57:51;17.33;;;10.50;;
5149;SDS011;2593;52.466;13.436;2023-07-29T02:00:18;9.63;;;8.67;;
5149;SDS011;2593;52.466;13.436;2023-07-29T02:02:44;18.80;;;9.67;;
5149;SDS011;2593;52.466;13.436;2023-07-29T02:05:10;9.50;;;8.27;;
5149;SDS011;2593;52.466;13.436;2023-07-29T02:07:36;13.53;;;9.20;;
5149;SDS011;2593;52.466;13.436;2023-07-29T02:10:02;10.57;;;9.47;;
5149;SDS011;2593;52.466;13.436;2023-07-29T02:12:28;14.70;;;10.00;;
5149;SDS011;2593;52.466;13.436;2023-07-29T02:14:54;12.03;;;8.83;;
5149;SDS011;2593;52.466;13.436;2023-07-29T02:17:20;9.47;;;8.57;;
5149;SDS011;2593;52.466;13.436;2023-07-29T02:19:47;12.60;;;10.37;;
5149;SDS011;2593;52.466;13.436;2023-07-29T02:22:13;10.03;;;8.43;;
5149;SDS011;2593;52.466;13.436;2023-07-29T02:24:40;10.60;;;9.50;;
5149;SDS011;2593;52.466;13.436;2023-07-29T02:27:06;13.17;;;9.57;;
5149;SDS011;2593;52.466;13.436;2023-07-29T02:29:32;14.80;;;9.50;;
5149;SDS011;2593;52.466;13.436;2023-07-29T02:31:59;9.40;;;8.40;;
5149;SDS011;2593;52.466;13.436;2023-07-29T02:34:25;10.30;;;9.23;;
5149;SDS011;2593;52.466;13.436;2023-07-29T02:36:51;17.43;;;10.70;;
5149;SDS011;2593;52.466;13.436;2023-07-29T02:39:17;14.10;;;9.67;;
5149;SDS011;2593;52.466;13.436;2023-07-29T02:41:43;24.40;;;10.40;;
5149;SDS011;2593;52.466;13.436;2023-07-29T02:44:09;19.03;;;9.97;;
5149;SDS011;2593;52.466;13.436;2023-07-29T02:46:35;20.93;;;9.30;;
5149;SDS011;2593;52.466;13.436;2023-07-29T02:49:02;10.83;;;9.17;;
5149;SDS011;2593;52.466;13.436;2023-07-29T02:51:29;14.17;;;8.70;;
5149;SDS011;2593;52.466;13.436;2023-07-29T02:53:55;13.27;;;8.80;;
5149;SDS011;2593;52.466;13.436;2023-07-29T02:56:21;12.40;;;9.07;;
5149;SDS011;2593;52.466;13.436;2023-07-29T02:58:47;10.57;;;9.47;;
5149;SDS011;2593;52.466;13.436;2023-07-29T03:01:13;11.83;;;9.60;;
5149;SDS011;2593;52.466;13.436;2023-07-29T03:03:39;12.70;;;9.50;;
5149;SDS011;2593;52.466;13.436;2023-07-29T03:06:06;13.47;;;9.70;;
5149;SDS011;2593;52.466;13.436;2023-07-29T03:08:33;12.10;;;9.13;;
5149;SDS011;2593;52.466;13.436;2023-07-29T03:11:04;11.10;;;9.90;;
5149;SDS011;2593;52.466;13.436;2023-07-29T03:13:30;10.27;;;8.93;;
5149;SDS011;2593;52.466;13.436;2023-07-29T03:16:15;22.20;;;10.03;;
5149;SDS011;2593;52.466;13.436;2023-07-29T03:18:42;22.80;;;9.47;;
5149;SDS011;2593;52.466;13.436;2023-07-29T03:21:08;11.37;;;10.17;;
5149;SDS011;2593;52.466;13.436;2023-07-29T03:23:35;17.50;;;9.20;;
5149;SDS011;2593;52.466;13.436;2023-07-29T03:26:01;15.23;;;10.00;;
5149;SDS011;2593;52.466;13.436;2023-07-29T03:28:34;13.70;;;9.47;;
5149;SDS011;2593;52.466;13.436;2023-07-29T03:31:00;11.33;;;9.37;;
5149;SDS011;2593;52.466;13.436;2023-07-29T03:33:26;14.87;;;10.60;;
5149;SDS011;2593;52.466;13.436;2023-07-29T03:35:53;19.63;;;10.50;;
5149;SDS011;2593;52.466;13.436;2023-07-29T03:38:19;14.13;;;9.30;;
5149;SDS011;2593;52.466;13.436;2023-07-29T03:40:45;10.50;;;9.40;;
5149;SDS011;2593;52.466;13.436;2023-07-29T03:43:12;13.87;;;9.53;;
5149;SDS011;2593;52.466;13.436;2023-07-29T03:45:39;16.30;;;10.40;;
5149;SDS011;2593;52.466;13.436;2023-07-29T03:48:05;13.97;;;9.73;;
5149;SDS011;2593;52.466;13.436;2023-07-29T03:50:32;18.30;;;10.00;;
5149;SDS011;2593;52.466;13.436;2023-07-29T03:52:58;15.13;;;9.00;;
5149;SDS011;2593;52.466;13.436;2023-07-29T03:55:24;13.83;;;9.40;;
5149;SDS011;2593;52.466;13.436;2023-07-29T03:57:50;15.10;;;10.97;;
5149;SDS011;2593;52.466;13.436;2023-07-29T04:00:16;14.87;;;10.83;;
5149;SDS011;2593;52.466;13.436;2023-07-29T04:02:43;11.10;;;9.47;;
5149;SDS011;2593;52.466;13.436;2023-07-29T04:05:10;12.80;;;9.20;;
5149;SDS011;2593;52.466;13.436;2023-07-29T04:07:36;12.40;;;9.90;;
5149;SDS011;2593;52.466;13.436;2023-07-29T04:10:03;10.87;;;9.60;;
5149;SDS011;2593;52.466;13.436;2023-07-29T04:12:29;10.30;;;8.60;;
5149;SDS011;2593;52.466;13.436;2023-07-29T04:14:55;17.47;;;10.43;;
5149;SDS011;2593;52.466;13.436;2023-07-29T04:17:21;13.23;;;9.30;;
5149;SDS011;2593;52.466;13.436;2023-07-29T04:19:47;10.53;;;9.20;;
5149;SDS011;2593;52.466;13.436;2023-07-29T04:22:14;12.30;;;9.40;;
5149;SDS011;2593;52.466;13.436;2023-07-29T04:24:40;12.87;;;9.33;;
5149;SDS011;2593;52.466;13.436;2023-07-29T04:27:06;9.97;;;8.73;;
5149;SDS011;2593;52.466;13.436;2023-07-29T04:29:32;12.80;;;8.77;;
5149;SDS011;2593;52.466;13.436;2023-07-29T04:32:00;11.00;;;8.33;;
5149;SDS011;2593;52.466;13.436;2023-07-29T04:34:26;9.27;;;7.97;;
5149;SDS011;2593;52.466;13.436;2023-07-29T04:36:52;9.90;;;8.60;;
5149;SDS011;2593;52.466;13.436;2023-07-29T04:39:18;9.87;;;8.67;;
5149;SDS011;2593;52.466;13.436;2023-07-29T04:41:45;9.00;;;8.10;;
5149;SDS011;2593;52.466;13.436;2023-07-29T04:44:11;10.07;;;8.47;;
5149;SDS011;2593;52.466;13.436;2023-07-29T04:46:37;9.13;;;8.37;;
5149;SDS011;2593;52.466;13.436;2023-07-29T04:49:03;8.83;;;7.30;;
5149;SDS011;2593;52.466;13.436;2023-07-29T04:51:30;13.47;;;8.20;;
5149;SDS011;2593;52.466;13.436;2023-07-29T04:53:57;10.00;;;8.60;;
5149;SDS011;2593;52.466;13.436;2023-07-29T04:56:23;10.50;;;8.10;;
5149;SDS011;2593;52.466;13.436;2023-07-29T04:58:50;10.10;;;8.87;;
5149;SDS011;2593;52.466;13.436;2023-07-29T05:01:16;10.03;;;8.20;;
5149;SDS011;2593;52.466;13.436;2023-07-29T05:06:18;9.20;;;7.90;;
5149;SDS011;2593;52.466;13.436;2023-07-29T05:08:44;10.60;;;7.10;;
5149;SDS011;2593;52.466;13.436;2023-07-29T05:11:10;8.33;;;7.20;;
5149;SDS011;2593;52.466;13.436;2023-07-29T05:13:36;8.43;;;7.63;;
5149;SDS011;2593;52.466;13.436;2023-07-29T05:16:03;14.07;;;8.27;;
5149;SDS011;2593;52.466;13.436;2023-07-29T05:18:29;8.77;;;6.70;;
5149;SDS011;2593;52.466;13.436;2023-07-29T05:20:55;7.90;;;7.20;;
5149;SDS011;2593;52.466;13.436;2023-07-29T05:23:21;8.40;;;7.50;;
5149;SDS011;2593;52.466;13.436;2023-07-29T05:25:47;7.03;;;6.40;;
5149;SDS011;2593;52.466;13.436;2023-07-29T05:28:13;8.03;;;7.20;;
5149;SDS011;2593;52.466;13.436;2023-07-29T05:30:39;7.57;;;6.43;;
5149;SDS011;2593;52.466;13.436;2023-07-29T05:33:05;13.00;;;6.80;;
5149;SDS011;2593;52.466;13.436;2023-07-29T05:35:34;7.33;;;6.60;;
5149;SDS011;2593;52.466;13.436;2023-07-29T05:38:01;7.13;;;6.43;;
5149;SDS011;2593;52.466;13.436;2023-07-29T05:40:28;10.13;;;6.50;;
5149;SDS011;2593;52.466;13.436;2023-07-29T05:42:54;7.13;;;6.30;;
5149;SDS011;2593;52.466;13.436;2023-07-29T05:45:21;6.50;;;6.00;;
5149;SDS011;2593;52.466;13.436;2023-07-29T05:47:47;7.93;;;7.17;;
5149;SDS011;2593;52.466;13.436;2023-07-29T05:50:13;7.00;;;6.30;;
5149;SDS011;2593;52.466;13.436;2023-07-29T05:52:39;11.13;;;6.57;;
5149;SDS011;2593;52.466;13.436;2023-07-29T05:55:05;8.50;;;6.50;;
5149;SDS011;2593;52.466;13.436;2023-07-29T05:57:31;8.10;;;6.60;;
5149;SDS011;2593;52.466;13.436;2023-07-29T05:59:57;7.80;;;6.33;;
5149;SDS011;2593;52.466;13.436;2023-07-29T06:02:23;6.33;;;5.73;;
5149;SDS011;2593;52.466;13.436;2023-07-29T06:04:49;9.00;;;5.87;;
5149;SDS011;2593;52.466;13.436;2023-07-29T06:07:15;5.90;;;5.30;;
5149;SDS011;2593;52.466;13.436;2023-07-29T06:09:42;6.00;;;5.03;;
5149;SDS011;2593;52.466;13.436;2023-07-29T06:12:08;7.57;;;6.40;;
5149;SDS011;2593;52.466;13.436;2023-07-29T06:14:34;9.30;;;5.80;;
5149;SDS011;2593;52.466;13.436;2023-07-29T06:17:00;6.27;;;5.67;;
5149;SDS011;2593;52.466;13.436;2023-07-29T06:19:26;6.17;;;5.70;;
5149;SDS011;2593;52.466;13.436;2023-07-29T06:21:54;5.23;;;4.73;;
5149;SDS011;2593;52.466;13.436;2023-07-29T06:24:20;9.03;;;5.50;;
5149;SDS011;2593;52.466;13.436;2023-07-29T06:26:46;5.50;;;4.83;;
5149;SDS011;2593;52.466;13.436;2023-07-29T06:29:12;5.17;;;4.70;;
5149;SDS011;2593;52.466;13.436;2023-07-29T06:31:38;4.50;;;4.10;;
5149;SDS011;2593;52.466;13.436;2023-07-29T06:34:04;6.07;;;4.77;;
5149;SDS011;2593;52.466;13.436;2023-07-29T06:36:30;4.70;;;4.33;;
5149;SDS011;2593;52.466;13.436;2023-07-29T06:38:57;4.70;;;4.30;;
5149;SDS011;2593;52.466;13.436;2023-07-29T06:41:23;4.10;;;3.80;;
5149;SDS011;2593;52.466;13.436;2023-07-29T06:43:49;3.70;;;3.50;;
5149;SDS011;2593;52.466;13.436;2023-07-29T06:46:15;4.03;;;3.77;;
5149;SDS011;2593;52.466;13.436;2023-07-29T06:48:41;3.00;;;2.80;;
5149;SDS011;2593;52.466;13.436;2023-07-29T06:51:07;7.90;;;4.07;;
5149;SDS011;2593;52.466;13.436;2023-07-29T06:53:33;4.60;;;4.30;;
5149;SDS011;2593;52.466;13.436;2023-07-29T06:55:59;8.80;;;3.73;;
5149;SDS011;2593;52.466;13.436;2023-07-29T06:58:25;4.33;;;3.37;;
5149;SDS011;2593;52.466;13.436;2023-07-29T07:00:51;4.23;;;3.93;;
5149;SDS011;2593;52.466;13.436;2023-07-29T07:03:17;3.83;;;3.40;;
5149;SDS011;2593;52.466;13.436;2023-07-29T07:05:43;6.47;;;3.60;;
5149;SDS011;2593;52.466;13.436;2023-07-29T07:08:10;7.20;;;3.97;;
5149;SDS011;2593;52.466;13.436;2023-07-29T07:10:36;3.97;;;3.33;;
5149;SDS011;2593;52.466;13.436;2023-07-29T07:13:02;5.20;;;3.37;;
5149;SDS011;2593;52.466;13.436;2023-07-29T07:15:28;4.40;;;4.00;;
5149;SDS011;2593;52.466;13.436;2023-07-29T07:17:54;3.90;;;3.70;;
5149;SDS011;2593;52.466;13.436;2023-07-29T07:20:20;4.30;;;4.00;;
5149;SDS011;2593;52.466;13.436;2023-07-29T07:22:46;3.47;;;3.27;;
5149;SDS011;2593;52.466;13.436;2023-07-29T07:25:12;3.97;;;3.63;;
5149;SDS011;2593;52.466;13.436;2023-07-29T07:27:38;4.17;;;3.67;;
5149;SDS011;2593;52.466;13.436;2023-07-29T07:30:04;4.20;;;3.90;;
5149;SDS011;2593;52.466;13.436;2023-07-29T07:32:31;3.60;;;3.30;;
5149;SDS011;2593;52.466;13.436;2023-07-29T07:34:57;5.40;;;3.97;;
5149;SDS011;2593;52.466;13.436;2023-07-29T07:37:23;5.13;;;3.90;;
5149;SDS011;2593;52.466;13.436;2023-07-29T07:39:49;6.87;;;4.03;;
5149;SDS011;2593;52.466;13.436;2023-07-29T07:42:15;4.00;;;3.70;;
5149;SDS011;2593;52.466;13.436;2023-07-29T07:44:41;8.43;;;3.30;;
5149;SDS011;2593;52.466;13.436;2023-07-29T07:47:07;8.63;;;3.70;;
5149;SDS011;2593;52.466;13.436;2023-07-29T07:49:33;7.80;;;3.57;;
5149;SDS011;2593;52.466;13.436;2023-07-29T07:51:59;7.43;;;3.30;;
5149;SDS011;2593;52.466;13.436;2023-07-29T07:54:25;4.17;;;3.83;;
5149;SDS011;2593;52.466;13.436;2023-07-29T07:56:51;3.30;;;3.00;;
5149;SDS011;2593;52.466;13.436;2023-07-29T07:59:17;4.43;;;3.87;;
5149;SDS011;2593;52.466;13.436;2023-07-29T08:01:43;3.77;;;3.47;;
5149;SDS011;2593;52.466;13.436;2023-07-29T08:04:09;10.93;;;3.40;;
5149;SDS011;2593;52.466;13.436;2023-07-29T08:06:35;5.03;;;3.57;;
5149;SDS011;2593;52.466;13.436;2023-07-29T08:09:01;3.77;;;3.57;;
5149;SDS011;2593;52.466;13.436;2023-07-29T08:11:28;7.00;;;4.20;;
5149;SDS011;2593;52.466;13.436;2023-07-29T08:13:54;4.40;;;4.00;;
5149;SDS011;2593;52.466;13.436;2023-07-29T08:16:20;3.67;;;3.00;;
5149;SDS011;2593;52.466;13.436;2023-07-29T08:18:46;3.07;;;2.87;;
5149;SDS011;2593;52.466;13.436;2023-07-29T08:21:12;3.47;;;3.00;;
5149;SDS011;2593;52.466;13.436;2023-07-29T08:23:38;4.33;;;3.30;;
5149;SDS011;2593;52.466;13.436;2023-07-29T08:26:05;3.57;;;3.20;;
5149;SDS011;2593;52.466;13.436;2023-07-29T08:28:32;3.20;;;3.00;;
5149;SDS011;2593;52.466;13.436;2023-07-29T08:30:59;3.33;;;3.13;;
5149;SDS011;2593;52.466;13.436;2023-07-29T08:33:25;3.10;;;3.00;;
5149;SDS011;2593;52.466;13.436;2023-07-29T08:35:51;2.83;;;2.72;;
5149;SDS011;2593;52.466;13.436;2023-07-29T08:38:18;2.50;;;2.40;;
5149;SDS011;2593;52.466;13.436;2023-07-29T08:41:03;7.70;;;3.08;;
5149;SDS011;2593;52.466;13.436;2023-07-29T08:43:31;3.35;;;2.20;;
5149;SDS011;2593;52.466;13.436;2023-07-29T08:45:58;2.55;;;2.45;;
5149;SDS011;2593;52.466;13.436;2023-07-29T08:48:37;2.72;;;2.53;;
5149;SDS011;2593;52.466;13.436;2023-07-29T08:51:05;5.32;;;2.55;;
5149;SDS011;2593;52.466;13.436;2023-07-29T08:53:34;2.55;;;2.45;;
5149;SDS011;2593;52.466;13.436;2023-07-29T08:56:00;3.15;;;2.95;;
5149;SDS011;2593;52.466;13.436;2023-07-29T08:58:26;4.03;;;3.10;;
5149;SDS011;2593;52.466;13.436;2023-07-29T09:00:53;2.80;;;2.60;;
5149;SDS011;2593;52.466;13.436;2023-07-29T09:03:19;2.97;;;2.70;;
5149;SDS011;2593;52.466;13.436;2023-07-29T09:05:46;2.75;;;2.10;;
5149;SDS011;2593;52.466;13.436;2023-07-29T09:08:12;2.08;;;1.98;;
5149;SDS011;2593;52.466;13.436;2023-07-29T09:10:38;2.45;;;2.25;;
5149;SDS011;2593;52.466;13.436;2023-07-29T09:13:04;4.82;;;2.33;;
5149;SDS011;2593;52.466;13.436;2023-07-29T09:15:32;2.05;;;1.95;;
5149;SDS011;2593;52.466;13.436;2023-07-29T09:17:58;5.43;;;2.10;;
5149;SDS011;2593;52.466;13.436;2023-07-29T09:20:25;2.45;;;2.25;;
5149;SDS011;2593;52.466;13.436;2023-07-29T09:22:51;5.63;;;2.55;;
5149;SDS011;2593;52.466;13.436;2023-07-29T09:25:22;1.73;;;1.45;;
5149;SDS011;2593;52.466;13.436;2023-07-29T09:27:48;2.20;;;2.10;;
5149;SDS011;2593;52.466;13.436;2023-07-29T09:30:18;28.27;;;2.78;;
5149;SDS011;2593;52.466;13.436;2023-07-29T09:32:44;2.63;;;2.42;;
5149;SDS011;2593;52.466;13.436;2023-07-29T09:35:11;2.47;;;2.33;;
5149;SDS011;2593;52.466;13.436;2023-07-29T09:37:37;1.95;;;1.85;;
5149;SDS011;2593;52.466;13.436;2023-07-29T09:40:04;15.82;;;2.42;;
5149;SDS011;2593;52.466;13.436;2023-07-29T09:42:30;2.97;;;2.78;;
5149;SDS011;2593;52.466;13.436;2023-07-29T09:44:56;2.63;;;2.53;;
5149;SDS011;2593;52.466;13.436;2023-07-29T09:47:23;2.38;;;2.25;;
5149;SDS011;2593;52.466;13.436;2023-07-29T09:49:50;2.03;;;1.92;;
5149;SDS011;2593;52.466;13.436;2023-07-29T09:52:16;2.28;;;2.17;;
5149;SDS011;2593;52.466;13.436;2023-07-29T09:54:43;2.05;;;1.95;;
5149;SDS011;2593;52.466;13.436;2023-07-29T09:57:16;3.05;;;1.92;;
5149;SDS011;2593;52.466;13.436;2023-07-29T09:59:42;2.92;;;2.10;;
5149;SDS011;2593;52.466;13.436;2023-07-29T10:02:10;2.55;;;2.28;;
5149;SDS011;2593;52.466;13.436;2023-07-29T10:04:39;2.13;;;2.03;;
5149;SDS011;2593;52.466;13.436;2023-07-29T10:07:06;2.15;;;2.05;;
5149;SDS011;2593;52.466;13.436;2023-07-29T10:09:33;3.08;;;1.95;;
5149;SDS011;2593;52.466;13.436;2023-07-29T10:11:59;2.22;;;2.00;;
5149;SDS011;2593;52.466;13.436;2023-07-29T10:14:27;2.00;;;1.90;;
5149;SDS011;2593;52.466;13.436;2023-07-29T10:16:53;4.50;;;1.67;;
5149;SDS011;2593;52.466;13.436;2023-07-29T10:19:20;2.50;;;2.40;;
5149;SDS011;2593;52.466;13.436;2023-07-29T10:21:46;2.65;;;2.45;;
5149;SDS011;2593;52.466;13.436;2023-07-29T10:24:15;7.93;;;2.20;;
5149;SDS011;2593;52.466;13.436;2023-07-29T10:26:46;1.90;;;1.80;;
5149;SDS011;2593;52.466;13.436;2023-07-29T10:29:12;1.48;;;1.38;;
5149;SDS011;2593;52.466;13.436;2023-07-29T10:31:39;9.40;;;3.33;;
5149;SDS011;2593;52.466;13.436;2023-07-29T10:34:06;3.17;;;2.00;;
5149;SDS011;2593;52.466;13.436;2023-07-29T10:36:32;5.03;;;1.75;;
5149;SDS011;2593;52.466;13.436;2023-07-29T10:38:58;2.90;;;2.30;;
5149;SDS011;2593;52.466;13.436;2023-07-29T10:41:41;5.87;;;1.60;;
5149;SDS011;2593;52.466;13.436;2023-07-29T10:46:55;2.30;;;1.70;;
5149;SDS011;2593;52.466;13.436;2023-07-29T10:49:23;2.70;;;1.60;;
5149;SDS011;2593;52.466;13.436;2023-07-29T10:51:49;3.67;;;2.03;;
5149;SDS011;2593;52.466;13.436;2023-07-29T10:54:15;1.70;;;1.60;;
5149;SDS011;2593;52.466;13.436;2023-07-29T10:56:42;2.90;;;1.60;;
5149;SDS011;2593;52.466;13.436;2023-07-29T11:01:38;7.53;;;1.83;;
5149;SDS011;2593;52.466;13.436;2023-07-29T11:09:39;5.43;;;1.57;;
5149;SDS011;2593;52.466;13.436;2023-07-29T11:14:53;3.23;;;1.97;;
5149;SDS011;2593;52.466;13.436;2023-07-29T11:17:19;5.27;;;2.40;;
5149;SDS011;2593;52.466;13.436;2023-07-29T11:19:45;3.50;;;3.20;;
5149;SDS011;2593;52.466;13.436;2023-07-29T11:22:12;16.33;;;4.53;;
5149;SDS011;2593;52.466;13.436;2023-07-29T11:24:40;7.97;;;2.10;;
5149;SDS011;2593;52.466;13.436;2023-07-29T11:27:11;16.67;;;2.67;;
5149;SDS011;2593;52.466;13.436;2023-07-29T11:29:37;14.40;;;2.23;;
5149;SDS011;2593;52.466;13.436;2023-07-29T11:32:03;13.13;;;7.50;;
5149;SDS011;2593;52.466;13.436;2023-07-29T11:34:32;10.87;;;6.53;;
5149;SDS011;2593;52.466;13.436;2023-07-29T11:36:58;17.30;;;11.83;;
5149;SDS011;2593;52.466;13.436;2023-07-29T11:39:24;21.37;;;14.47;;
5149;SDS011;2593;52.466;13.436;2023-07-29T11:41:50;17.37;;;12.57;;
5149;SDS011;2593;52.466;13.436;2023-07-29T11:44:16;12.73;;;9.43;;
5149;SDS011;2593;52.466;13.436;2023-07-29T11:46:43;40.93;;;30.00;;
5149;SDS011;2593;52.466;13.436;2023-07-29T11:49:09;77.10;;;54.37;;
5149;SDS011;2593;52.466;13.436;2023-07-29T11:51:38;16.40;;;11.77;;
5149;SDS011;2593;52.466;13.436;2023-07-29T11:54:04;9.60;;;5.33;;
5149;SDS011;2593;52.466;13.436;2023-07-29T11:56:30;7.10;;;4.73;;
5149;SDS011;2593;52.466;13.436;2023-07-29T11:58:58;11.40;;;6.30;;
5149;SDS011;2593;52.466;13.436;2023-07-29T12:01:24;32.80;;;23.03;;
5149;SDS011;2593;52.466;13.436;2023-07-29T12:03:50;55.20;;;38.80;;
5149;SDS011;2593;52.466;13.436;2023-07-29T12:06:16;69.20;;;48.23;;
5149;SDS011;2593;52.466;13.436;2023-07-29T12:08:42;14.67;;;10.23;;
5149;SDS011;2593;52.466;13.436;2023-07-29T12:11:09;11.80;;;7.27;;
5149;SDS011;2593;52.466;13.436;2023-07-29T12:13:38;45.10;;;26.20;;
5149;SDS011;2593;52.466;13.436;2023-07-29T12:16:04;39.17;;;25.40;;
5149;SDS011;2593;52.466;13.436;2023-07-29T12:18:32;17.37;;;12.43;;
5149;SDS011;2593;52.466;13.436;2023-07-29T12:20:59;45.20;;;27.67;;
5149;SDS011;2593;52.466;13.436;2023-07-29T12:23:25;20.27;;;13.63;;
5149;SDS011;2593;52.466;13.436;2023-07-29T12:25:56;15.70;;;11.40;;
5149;SDS011;2593;52.466;13.436;2023-07-29T12:28:22;16.57;;;9.50;;
5149;SDS011;2593;52.466;13.436;2023-07-29T12:30:53;37.60;;;22.80;;
5149;SDS011;2593;52.466;13.436;2023-07-29T12:35:57;52.70;;;32.47;;
5149;SDS011;2593;52.466;13.436;2023-07-29T12:38:25;18.20;;;12.40;;
5149;SDS011;2593;52.466;13.436;2023-07-29T12:40:51;22.87;;;11.57;;
5149;SDS011;2593;52.466;13.436;2023-07-29T12:43:18;19.47;;;12.50;;
5149;SDS011;2593;52.466;13.436;2023-07-29T12:45:44;16.10;;;10.40;;
5149;SDS011;2593;52.466;13.436;2023-07-29T12:48:10;9.83;;;4.57;;
5149;SDS011;2593;52.466;13.436;2023-07-29T12:50:37;7.50;;;4.77;;
5149;SDS011;2593;52.466;13.436;2023-07-29T12:53:04;10.53;;;5.07;;
5149;SDS011;2593;52.466;13.436;2023-07-29T12:55:30;5.37;;;3.53;;
5149;SDS011;2593;52.466;13.436;2023-07-29T12:57:56;9.03;;;5.03;;
5149;SDS011;2593;52.466;13.436;2023-07-29T13:00:24;8.20;;;4.33;;
5149;SDS011;2593;52.466;13.436;2023-07-29T13:02:50;10.70;;;5.40;;
5149;SDS011;2593;52.466;13.436;2023-07-29T13:05:16;14.43;;;7.37;;
5149;SDS011;2593;52.466;13.436;2023-07-29T13:07:43;6.50;;;4.40;;
5149;SDS011;2593;52.466;13.436;2023-07-29T13:10:09;4.37;;;3.77;;
5149;SDS011;2593;52.466;13.436;2023-07-29T13:12:36;7.97;;;3.53;;
5149;SDS011;2593;52.466;13.436;2023-07-29T13:15:02;6.27;;;3.90;;
5149;SDS011;2593;52.466;13.436;2023-07-29T13:17:28;8.80;;;4.43;;
5149;SDS011;2593;52.466;13.436;2023-07-29T13:19:54;15.40;;;8.43;;
5149;SDS011;2593;52.466;13.436;2023-07-29T13:22:20;8.93;;;6.37;;
5149;SDS011;2593;52.466;13.436;2023-07-29T13:24:46;7.13;;;5.40;;
5149;SDS011;2593;52.466;13.436;2023-07-29T13:27:12;5.70;;;4.50;;
5149;SDS011;2593;52.466;13.436;2023-07-29T13:29:39;5.07;;;4.57;;
5149;SDS011;2593;52.466;13.436;2023-07-29T13:32:06;17.90;;;10.50;;
5149;SDS011;2593;52.466;13.436;2023-07-29T13:34:32;14.50;;;8.53;;
5149;SDS011;2593;52.466;13.436;2023-07-29T13:36:59;7.80;;;6.20;;
5149;SDS011;2593;52.466;13.436;2023-07-29T13:39:25;7.00;;;5.00;;
5149;SDS011;2593;52.466;13.436;2023-07-29T13:41:52;6.43;;;4.50;;
5149;SDS011;2593;52.466;13.436;2023-07-29T13:44:18;2.87;;;2.73;;
5149;SDS011;2593;52.466;13.436;2023-07-29T13:46:44;2.33;;;2.13;;
5149;SDS011;2593;52.466;13.436;2023-07-29T13:49:10;3.17;;;2.50;;
5149;SDS011;2593;52.466;13.436;2023-07-29T13:51:37;4.93;;;2.37;;
5149;SDS011;2593;52.466;13.436;2023-07-29T13:54:03;2.93;;;2.57;;
5149;SDS011;2593;52.466;13.436;2023-07-29T13:56:29;3.63;;;2.67;;
5149;SDS011;2593;52.466;13.436;2023-07-29T13:58:55;4.10;;;3.77;;
5149;SDS011;2593;52.466;13.436;2023-07-29T14:01:21;8.20;;;4.93;;
5149;SDS011;2593;52.466;13.436;2023-07-29T14:03:47;3.33;;;2.63;;
5149;SDS011;2593;52.466;13.436;2023-07-29T14:06:13;7.13;;;4.77;;
5149;SDS011;2593;52.466;13.436;2023-07-29T14:08:39;2.97;;;2.70;;
5149;SDS011;2593;52.466;13.436;2023-07-29T14:11:06;7.03;;;3.00;;
5149;SDS011;2593;52.466;13.436;2023-07-29T14:13:33;2.87;;;2.60;;
5149;SDS011;2593;52.466;13.436;2023-07-29T14:16:02;2.80;;;1.90;;
5149;SDS011;2593;52.466;13.436;2023-07-29T14:18:28;1.80;;;1.70;;
5149;SDS011;2593;52.466;13.436;2023-07-29T14:20:54;2.00;;;1.53;;
5149;SDS011;2593;52.466;13.436;2023-07-29T14:23:20;3.17;;;2.30;;
5149;SDS011;2593;52.466;13.436;2023-07-29T14:25:46;5.80;;;2.50;;
5149;SDS011;2593;52.466;13.436;2023-07-29T14:28:13;3.00;;;2.10;;
5149;SDS011;2593;52.466;13.436;2023-07-29T14:30:39;3.00;;;2.70;;
5149;SDS011;2593;52.466;13.436;2023-07-29T14:33:06;4.50;;;2.97;;
5149;SDS011;2593;52.466;13.436;2023-07-29T14:35:32;2.47;;;2.27;;
5149;SDS011;2593;52.466;13.436;2023-07-29T14:37:58;2.30;;;2.20;;
5149;SDS011;2593;52.466;13.436;2023-07-29T14:40:25;2.00;;;1.90;;
5149;SDS011;2593;52.466;13.436;2023-07-29T14:42:52;5.30;;;3.03;;
5149;SDS011;2593;52.466;13.436;2023-07-29T14:45:18;6.57;;;4.20;;
5149;SDS011;2593;52.466;13.436;2023-07-29T14:47:44;2.53;;;2.33;;
5149;SDS011;2593;52.466;13.436;2023-07-29T14:50:10;6.83;;;5.17;;
5149;SDS011;2593;52.466;13.436;2023-07-29T14:52:37;4.83;;;3.23;;
5149;SDS011;2593;52.466;13.436;2023-07-29T14:55:03;6.07;;;3.40;;
5149;SDS011;2593;52.466;13.436;2023-07-29T14:57:29;5.90;;;2.83;;
5149;SDS011;2593;52.466;13.436;2023-07-29T14:59:55;4.37;;;3.97;;
5149;SDS011;2593;52.466;13.436;2023-07-29T15:02:21;4.80;;;3.70;;
5149;SDS011;2593;52.466;13.436;2023-07-29T15:04:48;8.33;;;3.97;;
5149;SDS011;2593;52.466;13.436;2023-07-29T15:07:14;3.97;;;2.83;;
5149;SDS011;2593;52.466;13.436;2023-07-29T15:09:40;2.40;;;2.20;;
5149;SDS011;2593;52.466;13.436;2023-07-29T15:12:07;2.50;;;1.63;;
5149;SDS011;2593;52.466;13.436;2023-07-29T15:14:33;1.80;;;1.70;;
5149;SDS011;2593;52.466;13.436;2023-07-29T15:16:59;2.10;;;2.00;;
5149;SDS011;2593;52.466;13.436;2023-07-29T15:19:25;3.90;;;2.80;;
5149;SDS011;2593;52.466;13.436;2023-07-29T15:21:51;5.43;;;4.50;;